Terminal Aerodrome Forecast
Issued by NWS Cleveland, OH

Home | Current Version | Previous Version | Text Only | Print | Product List | Glossary On
Versions: 1 2 3 4 5 6 7 8 9 10 11 12 13 14
823
FTUS41 KCLE 211732
TAFYNG
TAF
KYNG 211732Z 2118/2218 24006KT P6SM FEW060 SCT200
     FM212100 23005KT P6SM VCTS FEW050CB SCT200
     FM220200 21004KT P6SM BKN200
     FM221200 20007KT P6SM SCT040 BKN120=

USA.gov is the U.S. government's official web portal to all federal, state and local government web resources and services.